Time;durP1;ratioP1;P1;durP2;ratioP2;P2;SDS_P1;SDS_P2;PMS_P1;PMS_P2;Temp;Humidity;BMP_temperature;BMP_pressure;BME280_temperature;BME280_humidity;BME280_pressure;Samples;Min_cycle;Max_cycle;Signal;HPM_P1;HPM_P2
2024/02/13 00:00:09;;;;;;;10.38;4.57;;;;;;;3.61;100.00;101415.72;6085602;19;20090;-75
2024/02/13 00:02:15;;;;;;;11.43;4.40;;;;;;;3.62;100.00;101408.78;6087484;19;20077;-74
2024/02/13 00:04:22;;;;;;;7.13;3.85;;;;;;;3.56;100.00;101419.22;6088963;19;20478;-73
2024/02/13 00:06:27;;;;;;;9.05;5.00;;;;;;;3.58;100.00;101420.94;6087585;19;20552;-75
2024/02/13 00:08:32;;;;;;;8.52;4.53;;;;;;;3.65;100.00;101424.38;6086931;19;20516;-75
2024/02/13 00:10:49;;;;;;;9.55;4.88;;;;;;;3.71;100.00;101420.03;6086017;19;20360;-74
2024/02/13 00:12:54;;;;;;;11.27;6.13;;;;;;;3.77;100.00;101426.09;6087622;19;20047;-74
2024/02/13 00:15:02;;;;;;;9.10;6.00;;;;;;;3.82;100.00;101425.19;6087838;19;20400;-74
2024/02/13 00:17:08;;;;;;;10.45;5.75;;;;;;;3.83;100.00;101426.91;6087838;19;20010;-74
2024/02/13 00:19:19;;;;;;;10.38;6.82;;;;;;;3.87;100.00;101426.03;6087645;19;20055;-72
2024/02/13 00:21:34;;;;;;;10.88;6.43;;;;;;;3.87;100.00;101423.44;6087177;19;20478;-73
2024/02/13 00:23:57;;;;;;;13.45;6.63;;;;;;;3.80;100.00;101432.13;6087332;19;20014;-74
2024/02/13 00:26:13;;;;;;;13.18;7.82;;;;;;;3.89;100.00;101433.81;6088209;19;20464;-74
2024/02/13 00:28:20;;;;;;;16.08;7.72;;;;;;;3.93;100.00;101438.16;6079108;19;20015;-75
2024/02/13 00:30:28;;;;;;;12.32;6.40;;;;;;;3.92;100.00;101442.50;6090110;19;20022;-74
2024/02/13 00:32:39;;;;;;;12.15;7.25;;;;;;;3.93;100.00;101441.63;6086889;19;20479;-76
2024/02/13 00:34:44;;;;;;;10.95;6.82;;;;;;;3.94;100.00;101434.69;6089315;19;20003;-75
2024/02/13 00:36:52;;;;;;;14.18;7.78;;;;;;;3.89;100.00;101437.28;6085353;19;19998;-76
2024/02/13 00:39:03;;;;;;;16.63;7.97;;;;;;;3.89;100.00;101444.22;6086732;19;20019;-73
2024/02/13 00:41:09;;;;;;;14.20;6.72;;;;;;;3.88;100.00;101451.16;6082788;19;20451;-73
2024/02/13 00:43:19;;;;;;;11.13;7.43;;;;;;;3.93;100.00;101453.75;6081392;19;20019;-73
2024/02/13 00:45:27;;;;;;;17.33;7.68;;;;;;;3.94;100.00;101453.72;6081546;19;20021;-75
2024/02/13 00:47:35;;;;;;;17.83;9.00;;;;;;;3.97;100.00;101460.66;6082833;19;20078;-75
2024/02/13 00:49:40;;;;;;;14.20;7.95;;;;;;;3.89;100.00;101455.47;6081555;19;20010;-74
2024/02/13 00:51:46;;;;;;;12.57;7.43;;;;;;;3.89;100.00;101457.22;6082919;19;20625;-74
2024/02/13 00:53:51;;;;;;;13.13;7.97;;;;;;;3.91;100.00;101465.88;6085899;19;20011;-75
2024/02/13 00:55:58;;;;;;;14.43;8.48;;;;;;;3.92;100.00;101463.31;6084914;19;20010;-75
2024/02/13 00:58:04;;;;;;;14.63;9.68;;;;;;;3.87;100.00;101466.75;6085074;19;20007;-75
2024/02/13 01:00:12;;;;;;;15.40;9.55;;;;;;;3.89;100.00;101462.44;6085708;19;20370;-75
2024/02/13 01:02:18;;;;;;;14.88;7.95;;;;;;;3.84;100.00;101462.44;6087780;19;20439;-74
2024/02/13 01:04:26;;;;;;;19.33;9.45;;;;;;;3.88;100.00;101461.56;6078749;19;20039;-74
2024/02/13 01:06:32;;;;;;;13.75;8.23;;;;;;;3.83;100.00;101465.91;6083473;19;20445;-74
2024/02/13 01:08:37;;;;;;;17.95;8.55;;;;;;;3.85;100.00;101471.97;6084104;19;20019;-75
2024/02/13 01:10:43;;;;;;;15.45;8.48;;;;;;;3.81;100.00;101459.84;6082335;19;20048;-74
2024/02/13 01:12:50;;;;;;;15.52;8.70;;;;;;;3.82;100.00;101469.38;6082974;19;20158;-74
2024/02/13 01:14:55;;;;;;;17.08;9.55;;;;;;;3.80;100.00;101468.53;6082102;19;20019;-74
2024/02/13 01:17:02;;;;;;;16.15;7.72;;;;;;;3.81;100.00;101475.44;6084914;19;20039;-74
2024/02/13 01:19:10;;;;;;;18.63;8.32;;;;;;;3.81;100.00;101475.44;6080343;19;20014;-73
2024/02/13 01:21:22;;;;;;;13.52;9.45;;;;;;;3.80;100.00;101475.47;6082826;19;20011;-74
2024/02/13 01:23:27;;;;;;;20.33;8.73;;;;;;;3.80;100.00;101481.53;6085474;19;20019;-74
2024/02/13 01:25:35;;;;;;;15.50;9.05;;;;;;;3.78;100.00;101480.66;6085745;19;20113;-74
2024/02/13 01:27:42;;;;;;;19.33;10.27;;;;;;;3.76;100.00;101476.31;6079933;19;20010;-74
2024/02/13 01:29:48;;;;;;;13.82;8.35;;;;;;;3.82;100.00;101477.19;6083645;19;20454;-74
2024/02/13 01:32:01;;;;;;;13.68;8.93;;;;;;;3.81;100.00;101478.03;6084268;19;20476;-73
2024/02/13 01:34:11;;;;;;;14.32;9.02;;;;;;;3.78;100.00;101477.19;6081700;19;20003;-73
2024/02/13 01:36:17;;;;;;;17.70;8.93;;;;;;;3.77;100.00;101483.28;6084271;19;20017;-74
2024/02/13 01:38:27;;;;;;;14.00;8.88;;;;;;;3.82;100.00;101479.78;6080362;19;20009;-74
2024/02/13 01:40:33;;;;;;;12.55;8.90;;;;;;;3.86;100.00;101483.22;6082192;19;20006;-74
2024/02/13 01:42:38;;;;;;;14.25;7.80;;;;;;;3.85;100.00;101484.97;6083138;19;20023;-74
2024/02/13 01:44:43;;;;;;;13.15;9.07;;;;;;;3.83;100.00;101472.84;6082337;19;20518;-74
2024/02/13 01:46:52;;;;;;;15.82;8.63;;;;;;;3.87;100.00;101477.16;6084686;19;20022;-74
2024/02/13 01:48:59;;;;;;;17.27;8.60;;;;;;;3.87;100.00;101474.56;6083872;19;20043;-74
2024/02/13 01:51:05;;;;;;;14.70;8.05;;;;;;;3.99;100.00;101471.06;6083348;19;20464;-74
2024/02/13 01:53:11;;;;;;;12.95;8.77;;;;;;;3.95;100.00;101468.47;6078507;19;20011;-74
2024/02/13 01:55:23;;;;;;;18.05;8.70;;;;;;;3.97;100.00;101471.91;6082204;19;20025;-73
2024/02/13 01:57:30;;;;;;;20.05;8.30;;;;;;;3.93;100.00;101472.81;6082392;19;20394;-75
2024/02/13 01:59:39;;;;;;;14.45;9.52;;;;;;;3.89;100.00;101470.22;6082961;19;20019;-75
2024/02/13 02:01:49;;;;;;;16.42;9.50;;;;;;;3.86;100.00;101471.09;6081587;19;20039;-75
2024/02/13 02:03:57;;;;;;;16.02;8.50;;;;;;;3.84;100.00;101474.56;6084110;19;20014;-75
2024/02/13 02:06:09;;;;;;;15.18;8.05;;;;;;;3.82;100.00;101468.50;6085034;19;20050;-74
2024/02/13 02:08:20;;;;;;;15.95;8.13;;;;;;;3.90;100.00;101467.63;6084838;19;20095;-74
2024/02/13 02:10:37;;;;;;;13.77;8.70;;;;;;;3.90;100.00;101470.22;6081089;19;20521;-74
2024/02/13 02:12:49;;;;;;;16.17;7.65;;;;;;;3.93;100.00;101478.03;6080482;19;20007;-73
2024/02/13 02:14:52;;;;;;;10.45;6.82;;;;;;;3.88;100.00;101477.16;6083497;19;20022;-74
2024/02/13 02:17:09;;;;;;;14.00;9.95;;;;;;;3.87;100.00;101482.34;6083798;19;20014;-74
2024/02/13 02:19:14;;;;;;;17.15;8.57;;;;;;;3.90;100.00;101482.38;6083497;19;20385;-74
2024/02/13 02:21:19;;;;;;;15.52;7.88;;;;;;;3.90;100.00;101483.22;6082226;19;20037;-74
2024/02/13 02:23:26;;;;;;;14.88;8.63;;;;;;;3.87;100.00;101480.66;6084135;19;20554;-75
2024/02/13 02:25:34;;;;;;;12.88;7.63;;;;;;;3.88;100.00;101481.50;6084031;19;20987;-74
2024/02/13 02:27:40;;;;;;;15.15;7.75;;;;;;;3.89;100.00;101483.22;6082408;19;20017;-75
2024/02/13 02:29:47;;;;;;;11.65;7.55;;;;;;;3.87;100.00;101484.94;6083052;19;20054;-75
2024/02/13 02:31:52;;;;;;;12.65;8.30;;;;;;;3.90;100.00;101485.84;6083958;19;20491;-75
2024/02/13 02:34:03;;;;;;;13.32;7.95;;;;;;;3.93;100.00;101474.56;6082858;19;20011;-74
2024/02/13 02:36:09;;;;;;;11.88;7.03;;;;;;;3.98;100.00;101470.22;6084235;19;20087;-74
2024/02/13 02:38:16;;;;;;;12.95;7.88;;;;;;;3.92;100.00;101465.91;6051807;19;20441;-76
2024/02/13 02:40:24;;;;;;;10.82;6.72;;;;;;;3.96;100.00;101479.75;6088514;19;21451;-73
2024/02/13 02:42:38;;;;;;;10.27;7.68;;;;;;;4.04;100.00;101477.13;6087236;19;20003;-76
2024/02/13 02:44:47;;;;;;;16.83;7.43;;;;;;;3.97;100.00;101481.47;6087246;19;20011;-75
2024/02/13 02:46:54;;;;;;;11.18;6.90;;;;;;;3.99;100.00;101487.53;6084405;19;20003;-74
2024/02/13 02:49:00;;;;;;;13.48;8.02;;;;;;;3.97;100.00;101487.53;6085609;19;20475;-74
2024/02/13 02:51:09;;;;;;;12.20;7.97;;;;;;;4.00;100.00;101485.78;6089301;19;20006;-74
2024/02/13 02:53:15;;;;;;;14.23;6.93;;;;;;;4.00;100.00;101485.78;6086523;19;20017;-74
2024/02/13 02:55:24;;;;;;;18.05;7.47;;;;;;;3.93;100.00;101480.63;6091205;19;20035;-76
2024/02/13 02:57:27;;;;;;;12.00;6.80;;;;;;;3.93;100.00;101488.41;6089220;19;20520;-76
2024/02/13 02:59:36;;;;;;;11.35;6.53;;;;;;;3.93;100.00;101485.81;6087848;19;20017;-74
2024/02/13 03:01:41;;;;;;;17.05;7.50;;;;;;;3.95;100.00;101478.88;6086858;19;20014;-74
2024/02/13 03:03:47;;;;;;;12.27;6.38;;;;;;;3.92;100.00;101484.09;6084594;19;20013;-74
2024/02/13 03:05:58;;;;;;;10.40;6.05;;;;;;;3.94;100.00;101482.34;6088135;19;20534;-74
2024/02/13 03:08:07;;;;;;;13.82;4.97;;;;;;;3.92;100.00;101484.09;6088354;19;20013;-74
2024/02/13 03:10:15;;;;;;;12.80;6.97;;;;;;;3.86;100.00;101485.84;6088700;19;20014;-74
2024/02/13 03:12:24;;;;;;;9.15;5.65;;;;;;;3.76;100.00;101490.19;6087023;19;20657;-74
2024/02/13 03:14:30;;;;;;;9.43;5.90;;;;;;;3.85;100.00;101495.38;6092147;19;20493;-74
2024/02/13 03:16:50;;;;;;;12.70;5.93;;;;;;;3.86;100.00;101489.28;6090824;19;20006;-74
2024/02/13 03:18:55;;;;;;;12.57;6.20;;;;;;;3.79;100.00;101494.50;6081822;19;20018;-74
2024/02/13 03:21:07;;;;;;;15.45;6.68;;;;;;;3.84;100.00;101496.22;6086812;19;20763;-74
2024/02/13 03:23:18;;;;;;;12.68;6.65;;;;;;;3.81;100.00;101501.44;6085756;19;20109;-74
2024/02/13 03:25:40;;;;;;;13.10;5.75;;;;;;;3.83;100.00;101493.66;6088301;19;20021;-74
2024/02/13 03:27:48;;;;;;;11.90;6.60;;;;;;;3.81;100.00;101487.59;6089475;19;20444;-74
2024/02/13 03:29:56;;;;;;;10.60;6.05;;;;;;;3.85;100.00;101481.53;6089321;19;20003;-74
2024/02/13 03:32:06;;;;;;;11.40;6.32;;;;;;;3.81;100.00;101484.97;6089934;19;20508;-73
2024/02/13 03:34:16;;;;;;;14.75;6.40;;;;;;;3.74;100.00;101491.94;6084216;19;20053;-73
2024/02/13 03:36:24;;;;;;;11.35;6.93;;;;;;;3.74;100.00;101494.53;6088027;19;20027;-74
2024/02/13 03:38:29;;;;;;;10.65;6.75;;;;;;;3.78;100.00;101485.00;6085329;19;20460;-75
2024/02/13 03:40:40;;;;;;;13.25;6.47;;;;;;;3.77;100.00;101497.13;6085764;19;20006;-75
2024/02/13 03:42:52;;;;;;;15.73;7.15;;;;;;;3.68;100.00;101494.53;6086481;19;20009;-75
2024/02/13 03:44:58;;;;;;;15.13;6.85;;;;;;;3.71;100.00;101491.91;6086440;19;20041;-75
2024/02/13 03:47:11;;;;;;;12.65;6.75;;;;;;;3.61;100.00;101492.84;6079407;19;20024;-73
2024/02/13 03:49:16;;;;;;;10.38;5.78;;;;;;;3.66;100.00;101485.88;6086467;19;20686;-76
2024/02/13 03:51:26;;;;;;;14.25;5.78;;;;;;;3.69;100.00;101491.94;6081163;19;20000;-73
2024/02/13 03:53:37;;;;;;;17.90;7.35;;;;;;;3.68;100.00;101490.19;6082822;19;20468;-74
2024/02/13 03:55:47;;;;;;;9.38;6.10;;;;;;;3.76;100.00;101497.97;6083830;19;20006;-73
2024/02/13 03:57:52;;;;;;;11.43;6.38;;;;;;;3.73;100.00;101493.66;6086790;19;20044;-75
2024/02/13 03:59:57;;;;;;;10.45;6.25;;;;;;;3.76;100.00;101503.19;6085037;19;20039;-74
2024/02/13 04:02:02;;;;;;;10.82;6.00;;;;;;;3.73;100.00;101498.84;6083039;19;20481;-75
2024/02/13 04:04:14;;;;;;;10.80;6.43;;;;;;;3.77;100.00;101504.06;6083283;19;20043;-74
2024/02/13 04:06:27;;;;;;;13.55;6.78;;;;;;;3.76;100.00;101505.78;6082164;19;20003;-74
2024/02/13 04:08:34;;;;;;;8.63;5.28;;;;;;;3.71;100.00;101500.59;6085409;19;20007;-74
2024/02/13 04:10:40;;;;;;;18.02;6.38;;;;;;;3.70;100.00;101503.19;6086236;19;20015;-74
2024/02/13 04:12:45;;;;;;;12.25;6.57;;;;;;;3.70;100.00;101503.19;6084870;19;20007;-74
2024/02/13 04:14:51;;;;;;;11.07;5.95;;;;;;;3.70;100.00;101498.88;6080083;19;20010;-74
2024/02/13 04:16:58;;;;;;;11.48;5.82;;;;;;;3.67;100.00;101503.22;6086279;19;20039;-74
2024/02/13 04:19:03;;;;;;;10.57;5.43;;;;;;;3.67;100.00;101506.66;6085585;19;20074;-74
2024/02/13 04:21:17;;;;;;;9.05;5.85;;;;;;;3.62;100.00;101499.75;6086196;19;20010;-74
2024/02/13 04:23:22;;;;;;;13.85;5.90;;;;;;;3.66;100.00;101501.47;5981887;19;2006299;-74
2024/02/13 04:25:28;;;;;;;12.77;6.70;;;;;;;3.63;100.00;101509.25;6081520;19;20874;-75
2024/02/13 04:27:36;;;;;;;11.13;5.65;;;;;;;3.63;100.00;101517.06;6083611;19;20089;-73
2024/02/13 04:29:50;;;;;;;10.93;5.43;;;;;;;3.62;100.00;101516.19;6083269;19;20349;-73
2024/02/13 04:31:56;;;;;;;12.75;5.43;;;;;;;3.61;100.00;101513.63;6083043;19;20035;-74
2024/02/13 04:34:02;;;;;;;11.30;6.78;;;;;;;3.63;100.00;101517.06;6085149;19;20689;-73
2024/02/13 04:36:08;;;;;;;16.90;7.00;;;;;;;3.59;100.00;101516.22;6084073;19;20451;-75
2024/02/13 04:38:16;;;;;;;9.07;5.15;;;;;;;3.62;100.00;101516.19;6085669;19;20043;-75
2024/02/13 04:40:28;;;;;;;10.35;5.53;;;;;;;3.73;100.00;101523.97;6083588;19;20566;-75
2024/02/13 04:42:32;;;;;;;13.48;6.07;;;;;;;3.88;100.00;101528.31;6084514;19;20006;-76
2024/02/13 04:44:36;;;;;;;12.55;5.63;;;;;;;3.83;100.00;101517.91;6085604;19;20003;-76
2024/02/13 04:46:41;;;;;;;9.73;4.75;;;;;;;3.96;100.00;101526.56;6086271;19;20014;-76
2024/02/13 04:48:46;;;;;;;12.63;5.00;;;;;;;4.03;100.00;101519.59;6084176;19;20010;-74
2024/02/13 04:50:52;;;;;;;9.73;5.75;;;;;;;4.02;100.00;101523.06;6083917;19;20010;-73
2024/02/13 04:53:02;;;;;;;13.60;6.00;;;;;;;4.10;100.00;101523.91;6084217;19;20013;-74
2024/02/13 04:55:22;;;;;;;9.55;5.72;;;;;;;4.12;100.00;101519.56;6083643;19;20413;-75
2024/02/13 04:57:36;;;;;;;21.42;6.30;;;;;;;4.15;100.00;101509.16;5981630;19;2004635;-74
2024/02/13 04:59:47;;;;;;;8.02;5.28;;;;;;;4.14;100.00;101507.44;6081809;19;20026;-74
2024/02/13 05:02:04;;;;;;;12.52;6.13;;;;;;;4.13;100.00;101510.88;6081833;19;20024;-73
2024/02/13 05:08:45;;;;;;;12.27;5.25;;;;;;;4.03;100.00;101506.59;6085413;19;20003;-75
2024/02/13 05:10:53;;;;;;;14.15;6.68;;;;;;;4.04;100.00;101518.72;6085169;19;20714;-75
2024/02/13 05:12:59;;;;;;;9.27;6.03;;;;;;;4.02;100.00;101513.53;6084848;19;20476;-74
2024/02/13 05:15:08;;;;;;;15.00;5.63;;;;;;;4.06;100.00;101515.25;6083446;19;20022;-73
2024/02/13 05:17:16;;;;;;;10.52;5.10;;;;;;;4.06;100.00;101517.00;6084978;19;20014;-73
2024/02/13 05:19:23;;;;;;;10.18;5.57;;;;;;;4.02;100.00;101510.06;6084451;19;20348;-74
2024/02/13 05:21:30;;;;;;;15.00;5.50;;;;;;;4.03;100.00;101509.19;6086123;19;20010;-74
2024/02/13 05:23:35;;;;;;;11.35;5.78;;;;;;;4.03;100.00;101510.06;6082121;19;20011;-74
2024/02/13 05:25:40;;;;;;;11.23;5.47;;;;;;;4.04;100.00;101524.78;6086713;19;20366;-73
2024/02/13 05:27:48;;;;;;;15.45;5.55;;;;;;;4.03;100.00;101523.06;6084786;19;20005;-75
2024/02/13 05:29:53;;;;;;;8.02;5.82;;;;;;;4.07;100.00;101523.91;6085191;19;20014;-75
2024/02/13 05:31:59;;;;;;;13.52;5.80;;;;;;;4.00;100.00;101523.06;6083749;19;20006;-75
2024/02/13 05:34:06;;;;;;;12.32;4.80;;;;;;;3.97;100.00;101512.66;6082139;19;20007;-75
2024/02/13 05:36:11;;;;;;;9.65;5.10;;;;;;;3.99;100.00;101507.47;6084957;19;20069;-75
2024/02/13 05:38:17;;;;;;;10.63;6.22;;;;;;;4.01;100.00;101519.59;6084584;19;20017;-75
2024/02/13 05:40:22;;;;;;;11.68;5.68;;;;;;;3.99;100.00;101520.47;6083842;19;20006;-74
2024/02/13 05:42:28;;;;;;;13.48;5.97;;;;;;;4.04;100.00;101506.59;6084252;19;20007;-74
2024/02/13 05:44:36;;;;;;;13.40;5.38;;;;;;;4.02;100.00;101503.13;6083993;19;20054;-75
2024/02/13 05:46:42;;;;;;;14.85;6.47;;;;;;;4.05;100.00;101504.84;6082993;19;20027;-74
2024/02/13 05:48:49;;;;;;;14.82;5.75;;;;;;;4.07;100.00;101506.56;6085697;19;20571;-75
2024/02/13 05:50:52;;;;;;;9.25;5.18;;;;;;;4.07;100.00;101513.53;6084016;19;20472;-74
2024/02/13 05:52:57;;;;;;;9.02;5.28;;;;;;;4.07;100.00;101510.91;6084502;19;20014;-75
2024/02/13 05:55:03;;;;;;;10.77;5.30;;;;;;;4.07;100.00;101514.38;6084590;19;20009;-74
2024/02/13 05:57:13;;;;;;;12.85;5.80;;;;;;;4.03;100.00;101509.19;6084803;19;20526;-75
2024/02/13 05:59:25;;;;;;;15.32;6.05;;;;;;;4.04;100.00;101506.59;6087086;19;20059;-75
2024/02/13 06:01:33;;;;;;;11.32;6.70;;;;;;;4.07;100.00;101506.56;6086639;19;20035;-75
2024/02/13 06:03:38;;;;;;;17.50;6.88;;;;;;;4.05;100.00;101510.06;6085926;19;20082;-75
2024/02/13 06:05:44;;;;;;;16.40;6.28;;;;;;;3.97;100.00;101513.53;6090420;19;20007;-75
2024/02/13 06:07:50;;;;;;;22.98;6.40;;;;;;;4.01;100.00;101510.94;6086512;19;20412;-74
2024/02/13 06:09:55;;;;;;;10.73;6.53;;;;;;;3.98;100.00;101514.41;6087311;19;20006;-76
2024/02/13 06:12:00;;;;;;;13.85;6.75;;;;;;;3.96;100.00;101510.94;6085193;19;20004;-74
2024/02/13 06:14:03;;;;;;;10.85;6.20;;;;;;;3.95;100.00;101514.44;6080778;19;20010;-75
2024/02/13 06:16:10;;;;;;;12.05;5.50;;;;;;;3.98;100.00;101511.81;6082974;19;20017;-75
2024/02/13 06:18:17;;;;;;;9.63;4.40;;;;;;;3.90;100.00;101522.22;6085721;19;20310;-75
2024/02/13 06:20:23;;;;;;;14.32;5.43;;;;;;;3.89;100.00;101520.47;6084094;19;20021;-76
2024/02/13 06:22:29;;;;;;;8.52;4.70;;;;;;;3.92;100.00;101525.69;6084257;19;20007;-76
2024/02/13 06:24:34;;;;;;;10.60;5.97;;;;;;;3.92;100.00;101530.91;6082936;19;20007;-73
2024/02/13 06:26:40;;;;;;;14.43;5.00;;;;;;;3.95;100.00;101530.88;6085795;19;20495;-74
2024/02/13 06:28:45;;;;;;;19.52;5.60;;;;;;;3.99;100.00;101536.94;6080491;19;20023;-75
2024/02/13 06:30:50;;;;;;;11.75;4.95;;;;;;;3.95;100.00;101535.22;6082327;19;20072;-75
2024/02/13 06:32:56;;;;;;;9.18;4.68;;;;;;;3.96;100.00;101537.81;6079164;19;20006;-76
2024/02/13 06:35:03;;;;;;;7.93;4.57;;;;;;;3.94;100.00;101530.88;6080873;19;20341;-75
2024/02/13 06:37:10;;;;;;;8.85;5.63;;;;;;;3.90;100.00;101524.84;6080506;19;20479;-74
2024/02/13 06:39:20;;;;;;;11.25;4.57;;;;;;;3.89;100.00;101523.09;6081860;19;21212;-75
2024/02/13 06:41:26;;;;;;;16.15;4.88;;;;;;;3.93;100.00;101530.03;6081022;19;20486;-74
2024/02/13 06:43:31;;;;;;;12.18;5.13;;;;;;;3.82;100.00;101539.59;6081433;19;20523;-72
2024/02/13 06:45:36;;;;;;;8.32;4.00;;;;;;;3.83;100.00;101530.03;6082916;19;20011;-72
2024/02/13 06:47:38;;;;;;;12.50;5.35;;;;;;;3.85;100.00;101544.78;6073557;19;20475;-71
2024/02/13 06:49:44;;;;;;;;;;;;;;;3.81;100.00;101543.03;6083651;19;20237;-72
2024/02/13 06:51:53;;;;;;;9.88;4.38;;;;;;;3.75;100.00;101548.25;6082692;19;19911;-72
2024/02/13 06:54:02;;;;;;;13.90;5.38;;;;;;;3.81;100.00;101540.44;6079318;19;20011;-71
2024/02/13 06:56:08;;;;;;;11.68;5.18;;;;;;;3.85;100.00;101539.56;6081222;19;20021;-71
2024/02/13 06:58:16;;;;;;;9.23;4.82;;;;;;;3.78;100.00;101542.19;6082407;19;20034;-71
2024/02/13 07:00:25;;;;;;;11.48;4.75;;;;;;;3.74;100.00;101546.53;6081834;19;20015;-72
2024/02/13 07:02:30;;;;;;;8.82;4.82;;;;;;;3.73;100.00;101545.63;6080586;19;20047;-71
2024/02/13 07:04:36;;;;;;;8.45;4.97;;;;;;;3.74;100.00;101551.72;6081232;19;20039;-71
2024/02/13 07:06:41;;;;;;;12.50;5.78;;;;;;;3.73;100.00;101544.78;6079186;19;20506;-72
2024/02/13 07:09:10;;;;;;;9.48;4.13;;;;;;;3.71;100.00;101542.19;6082797;19;20039;-72
2024/02/13 07:11:15;;;;;;;12.55;5.40;;;;;;;3.71;100.00;101549.09;6081405;19;20006;-72
2024/02/13 07:13:21;;;;;;;9.23;5.30;;;;;;;3.73;100.00;101553.44;6082852;19;20006;-73
2024/02/13 07:15:26;;;;;;;10.20;5.60;;;;;;;3.68;100.00;101556.91;6081725;19;20523;-73
2024/02/13 07:17:31;;;;;;;9.20;4.78;;;;;;;3.66;100.00;101556.03;6080913;19;20111;-72
2024/02/13 07:19:51;;;;;;;7.40;4.40;;;;;;;3.66;100.00;101569.03;5983630;19;2004675;-71
2024/02/13 07:21:57;;;;;;;13.32;5.93;;;;;;;3.69;100.00;101574.25;6079857;19;20010;-71
2024/02/13 07:24:03;;;;;;;7.40;4.13;;;;;;;3.72;100.00;101575.13;6080131;19;20021;-72
2024/02/13 07:26:11;;;;;;;16.80;5.82;;;;;;;3.80;100.00;101587.25;6084547;19;20039;-71
2024/02/13 07:28:16;;;;;;;10.20;5.03;;;;;;;3.71;100.00;101586.38;6083426;19;20484;-71
2024/02/13 07:30:22;;;;;;;12.20;5.55;;;;;;;3.70;100.00;101592.44;6086761;19;20504;-72
2024/02/13 07:32:27;;;;;;;8.68;5.07;;;;;;;3.66;100.00;101589.81;6083049;19;20650;-73
2024/02/13 07:34:37;;;;;;;10.90;4.80;;;;;;;3.72;100.00;101600.25;6088778;19;20017;-72
2024/02/13 07:36:42;;;;;;;9.50;5.38;;;;;;;3.71;100.00;101598.50;6088363;19;20009;-73
2024/02/13 07:38:47;;;;;;;13.88;5.70;;;;;;;3.67;100.00;101600.25;6088254;19;20716;-72
2024/02/13 07:40:53;;;;;;;9.70;4.25;;;;;;;3.69;100.00;101605.44;6084875;19;20043;-71
2024/02/13 07:43:01;;;;;;;9.07;5.32;;;;;;;3.74;100.00;101606.31;6087925;19;20015;-72
2024/02/13 07:45:07;;;;;;;10.65;5.25;;;;;;;3.82;100.00;101612.38;6086014;19;20080;-72
2024/02/13 07:47:13;;;;;;;8.27;4.88;;;;;;;3.88;100.00;101609.75;6085564;19;20011;-72
2024/02/13 07:49:18;;;;;;;9.40;5.63;;;;;;;3.88;100.00;101609.75;6085454;19;20506;-72
2024/02/13 07:51:26;;;;;;;10.48;5.72;;;;;;;3.95;100.00;101605.44;6087012;19;20021;-72
2024/02/13 07:53:32;;;;;;;10.27;5.22;;;;;;;3.95;100.00;101614.09;6085274;19;20441;-72
2024/02/13 07:55:38;;;;;;;9.88;5.00;;;;;;;3.95;100.00;101614.09;6087069;19;20003;-73
2024/02/13 07:57:43;;;;;;;10.02;4.82;;;;;;;4.00;100.00;101614.06;6085867;19;20011;-72
2024/02/13 07:59:56;;;;;;;14.60;5.60;;;;;;;4.05;100.00;101614.06;6087362;19;20143;-72
2024/02/13 08:02:01;;;;;;;;;;;;;;;4.08;100.00;101627.97;5997636;19;2004873;-71
2024/02/13 08:04:06;;;;;;;10.52;4.72;;;;;;;4.13;100.00;101620.13;6086999;19;19919;-71
2024/02/13 08:06:11;;;;;;;16.67;5.50;;;;;;;4.16;100.00;101625.31;6088135;19;20028;-72
2024/02/13 08:08:16;;;;;;;14.57;4.65;;;;;;;4.22;100.00;101632.28;6088862;19;20086;-73
2024/02/13 08:10:23;;;;;;;10.40;5.43;;;;;;;4.21;100.00;101635.72;6087287;19;20014;-74
2024/02/13 08:12:29;;;;;;;11.18;6.30;;;;;;;4.20;100.00;101634.00;6028759;19;20007;-72
2024/02/13 08:14:34;;;;;;;9.15;4.00;;;;;;;4.28;100.00;101640.94;6086823;19;20521;-71
2024/02/13 08:16:43;;;;;;;15.13;4.88;;;;;;;4.29;100.00;101639.19;6087051;19;20451;-72
2024/02/13 08:18:50;;;;;;;9.57;5.30;;;;;;;4.33;100.00;101639.19;6086602;19;20387;-72
2024/02/13 08:20:55;;;;;;;11.82;4.93;;;;;;;4.34;100.00;101632.25;6086635;19;20195;-72
2024/02/13 08:22:59;;;;;;;13.75;4.85;;;;;;;4.45;100.00;101637.41;6086168;19;20010;-71
2024/02/13 08:25:05;;;;;;;10.98;5.20;;;;;;;4.51;100.00;101637.44;6085448;19;20019;-73
2024/02/13 08:27:10;;;;;;;10.80;5.13;;;;;;;4.57;100.00;101632.19;6085272;19;20253;-73
2024/02/13 08:29:16;;;;;;;12.25;5.78;;;;;;;4.60;100.00;101638.25;6083478;19;20645;-73
2024/02/13 08:31:21;;;;;;;7.53;4.07;;;;;;;4.70;100.00;101640.84;6082148;19;20403;-73
2024/02/13 08:33:29;;;;;;;12.90;5.03;;;;;;;4.72;100.00;101639.09;6084287;19;20006;-74
2024/02/13 08:35:34;;;;;;;8.60;4.25;;;;;;;4.80;100.00;101637.31;6083148;19;20537;-72
2024/02/13 08:37:37;;;;;;;8.52;4.65;;;;;;;4.83;100.00;101645.97;6082028;19;20571;-72
2024/02/13 08:39:43;;;;;;;11.30;4.35;;;;;;;4.92;100.00;101652.03;6086445;19;20011;-71
2024/02/13 08:41:46;;;;;;;12.57;5.40;;;;;;;4.98;100.00;101650.28;6085865;19;20011;-72
2024/02/13 08:43:51;;;;;;;12.68;4.72;;;;;;;5.02;100.00;101649.38;6086623;19;20015;-72
2024/02/13 08:45:53;;;;;;;11.18;5.07;;;;;;;5.10;100.00;101651.94;6086028;19;20488;-71
2024/02/13 08:47:58;;;;;;;;;;;;;;;5.26;100.00;101650.97;6085626;19;20006;-72
2024/02/13 08:50:07;;;;;;;10.75;4.47;;;;;;;5.37;100.00;101642.25;6089088;19;20328;-71
2024/02/13 08:52:13;;;;;;;8.95;4.45;;;;;;;5.50;100.00;101641.28;6083447;19;20014;-76
2024/02/13 08:54:18;;;;;;;16.80;4.80;;;;;;;5.60;100.00;101648.16;6087934;19;20371;-74
2024/02/13 08:56:22;;;;;;;8.75;3.80;;;;;;;5.69;100.00;101647.25;6089094;19;20025;-72
2024/02/13 08:58:27;;;;;;;9.25;4.10;;;;;;;5.76;100.00;101656.75;6086537;19;20015;-75
2024/02/13 09:00:32;;;;;;;12.05;4.88;;;;;;;5.82;100.00;101650.63;6088498;19;20007;-74
2024/02/13 09:02:37;;;;;;;7.35;3.78;;;;;;;5.85;100.00;101645.41;6084447;19;20014;-74
2024/02/13 09:04:42;;;;;;;7.13;3.92;;;;;;;5.85;100.00;101641.03;6084792;19;20039;-75
2024/02/13 09:06:50;;;;;;;7.45;3.92;;;;;;;5.89;100.00;101634.91;6085038;19;20027;-73
2024/02/13 09:08:55;;;;;;;12.10;4.30;;;;;;;5.96;100.00;101638.38;6085822;19;20008;-73
2024/02/13 09:11:01;;;;;;;10.65;5.03;;;;;;;6.01;100.00;101649.63;6085896;19;20014;-74
2024/02/13 09:13:07;;;;;;;11.57;3.90;;;;;;;6.05;100.00;101646.09;6083786;19;20011;-74
2024/02/13 09:15:12;;;;;;;11.43;4.57;;;;;;;6.11;100.00;101643.47;6087823;19;20006;-73
2024/02/13 09:17:18;;;;;;;9.45;4.10;;;;;;;6.26;100.00;101649.41;6086891;19;20021;-74
2024/02/13 09:19:25;;;;;;;8.73;4.72;;;;;;;6.34;100.00;101647.56;6085834;19;20709;-73
2024/02/13 09:21:31;;;;;;;10.90;4.13;;;;;;;6.32;100.00;101654.59;6083555;19;20006;-77
2024/02/13 09:23:39;;;;;;;8.60;3.78;;;;;;;6.35;100.00;101644.09;6085365;19;20073;-77
2024/02/13 09:25:49;;;;;;;11.63;3.70;;;;;;;6.50;100.00;101643.97;6084722;19;20511;-76
2024/02/13 09:27:54;;;;;;;7.32;3.70;;;;;;;6.59;100.00;101638.63;6085883;19;20018;-76
2024/02/13 09:30:00;;;;;;;5.75;3.50;;;;;;;6.65;100.00;101636.81;6086469;19;20006;-74
2024/02/13 09:32:08;;;;;;;10.32;3.83;;;;;;;6.66;100.00;101646.38;6086486;19;20034;-75
2024/02/13 09:34:14;;;;;;;11.63;3.75;;;;;;;6.63;100.00;101649.88;6084972;19;20014;-74
2024/02/13 09:36:21;;;;;;;8.75;3.30;;;;;;;6.62;100.00;101657.75;6085098;19;20548;-74
2024/02/13 09:38:26;;;;;;;8.13;3.67;;;;;;;6.60;100.00;101653.38;6086018;19;20023;-75
2024/02/13 09:40:34;;;;;;;9.52;4.05;;;;;;;6.80;100.00;101647.09;6086745;19;19998;-74
2024/02/13 09:42:39;;;;;;;4.95;2.97;;;;;;;6.97;100.00;101646.88;6084379;19;20134;-76
2024/02/13 09:44:45;;;;;;;7.85;3.78;;;;;;;7.08;100.00;101650.19;6085077;19;20014;-75
2024/02/13 09:46:51;;;;;;;9.00;3.53;;;;;;;7.11;100.00;101649.31;6086327;19;20522;-75
2024/02/13 09:48:58;;;;;;;6.22;3.25;;;;;;;7.14;100.00;101646.69;6083718;19;20011;-74
2024/02/13 09:51:07;;;;;;;6.45;3.80;;;;;;;7.22;100.00;101644.81;6085168;19;20474;-76